createdAt,value
2019-03-17T00:00:12.252Z,2.93
2019-03-17T00:02:42.824Z,2.40
2019-03-17T00:05:13.525Z,2.43
2019-03-17T00:07:44.171Z,3.77
2019-03-17T00:10:14.767Z,2.97
2019-03-17T00:12:45.344Z,3.80
2019-03-17T00:15:15.976Z,3.27
2019-03-17T00:17:46.572Z,4.40
2019-03-17T00:20:17.167Z,3.27
2019-03-17T00:22:47.779Z,6.33
2019-03-17T00:25:18.424Z,2.47
2019-03-17T00:27:49.031Z,2.67
2019-03-17T00:30:19.608Z,5.00
2019-03-17T00:32:50.184Z,3.80
2019-03-17T00:35:20.793Z,3.30
2019-03-17T00:37:51.347Z,6.90
2019-03-17T00:40:21.962Z,3.17
2019-03-17T00:42:52.546Z,4.17
2019-03-17T00:45:23.324Z,5.60
2019-03-17T00:47:53.899Z,2.63
2019-03-17T00:50:24.522Z,3.90
2019-03-17T00:52:55.138Z,5.63
2019-03-17T00:55:25.707Z,2.50
2019-03-17T00:57:56.353Z,3.73
2019-03-17T01:00:33.209Z,2.77
2019-03-17T01:03:03.861Z,2.00
2019-03-17T01:05:34.450Z,3.67
2019-03-17T01:08:05.107Z,4.43
2019-03-17T01:10:35.753Z,2.70
2019-03-17T01:13:06.391Z,3.80
2019-03-17T01:15:37.025Z,3.30
2019-03-17T01:18:07.643Z,5.70
2019-03-17T01:20:38.259Z,4.00
2019-03-17T01:23:08.918Z,2.60
2019-03-17T01:25:39.571Z,3.53
2019-03-17T01:28:10.150Z,3.77
2019-03-17T01:30:40.700Z,5.17
2019-03-17T01:33:11.347Z,5.07
2019-03-17T01:35:41.897Z,2.10
2019-03-17T01:38:12.536Z,3.33
2019-03-17T01:40:43.114Z,5.27
2019-03-17T01:43:13.725Z,2.50
2019-03-17T01:45:44.310Z,4.50
2019-03-17T01:48:14.899Z,2.80
2019-03-17T01:50:45.505Z,4.03
2019-03-17T01:53:16.093Z,4.03
2019-03-17T01:55:46.713Z,3.60
2019-03-17T01:58:17.343Z,2.03
2019-03-17T02:00:47.971Z,2.43
2019-03-17T02:03:18.525Z,3.80
2019-03-17T02:05:49.200Z,4.70
2019-03-17T02:08:19.838Z,3.17
2019-03-17T02:10:50.469Z,2.40
2019-03-17T02:13:21.104Z,4.57
2019-03-17T02:15:51.709Z,2.13
2019-03-17T02:18:22.245Z,3.90
2019-03-17T02:20:52.847Z,2.93
2019-03-17T02:23:23.433Z,4.00
2019-03-17T02:25:54.435Z,4.47
2019-03-17T02:28:25.097Z,4.87
2019-03-17T02:30:55.718Z,5.93
2019-03-17T02:33:26.305Z,2.30
2019-03-17T02:35:57.010Z,2.97
2019-03-17T02:38:27.565Z,6.07
2019-03-17T02:40:58.194Z,2.77
2019-03-17T02:43:28.766Z,4.47
2019-03-17T02:46:02.846Z,2.70
2019-03-17T02:48:31.718Z,3.57
2019-03-17T02:51:02.439Z,4.00
2019-03-17T02:53:33.061Z,5.73
2019-03-17T02:56:03.626Z,5.43
2019-03-17T02:58:34.234Z,3.33
2019-03-17T03:01:04.876Z,3.27
2019-03-17T03:03:35.561Z,5.07
2019-03-17T03:06:06.102Z,3.50
2019-03-17T03:08:36.759Z,4.47
2019-03-17T03:11:07.511Z,3.90
2019-03-17T03:13:38.268Z,4.27
2019-03-17T03:16:08.904Z,7.43
2019-03-17T03:18:39.490Z,4.00
2019-03-17T03:21:10.135Z,5.77
2019-03-17T03:23:40.695Z,3.83
2019-03-17T03:26:11.314Z,4.03
2019-03-17T03:28:41.920Z,3.33
2019-03-17T03:31:12.588Z,5.60
2019-03-17T03:33:45.038Z,5.20
2019-03-17T03:36:15.569Z,3.43
2019-03-17T03:38:46.208Z,5.23
2019-03-17T03:41:16.752Z,5.47
2019-03-17T03:43:47.411Z,4.90
2019-03-17T03:46:18.063Z,3.72
2019-03-17T03:48:48.620Z,4.13
2019-03-17T03:51:19.287Z,5.17
2019-03-17T03:53:49.779Z,6.30
2019-03-17T03:56:20.494Z,5.60
2019-03-17T03:58:51.096Z,9.47
2019-03-17T04:01:21.704Z,6.70
2019-03-17T04:03:52.300Z,5.03
2019-03-17T04:06:26.769Z,4.80
2019-03-17T04:08:55.243Z,5.23
2019-03-17T04:11:25.793Z,7.07
2019-03-17T04:13:56.367Z,3.90
2019-03-17T04:16:26.936Z,3.63
2019-03-17T04:18:57.541Z,10.10
2019-03-17T04:21:28.096Z,9.30
2019-03-17T04:23:58.690Z,5.57
2019-03-17T04:26:29.560Z,4.50
2019-03-17T04:29:00.251Z,7.27
2019-03-17T04:31:30.953Z,2.73
2019-03-17T04:34:01.689Z,5.20
2019-03-17T04:36:39.984Z,4.37
2019-03-17T04:39:05.275Z,5.27
2019-03-17T04:41:35.862Z,5.63
2019-03-17T04:44:06.509Z,4.77
2019-03-17T04:46:37.079Z,3.93
2019-03-17T04:49:07.651Z,4.77
2019-03-17T04:51:38.321Z,3.50
2019-03-17T04:54:08.891Z,4.50
2019-03-17T04:56:39.454Z,6.00
2019-03-17T04:59:10.055Z,4.60
2019-03-17T05:01:40.629Z,7.07
2019-03-17T05:04:11.232Z,6.63
2019-03-17T05:06:52.127Z,5.90
2019-03-17T05:09:14.784Z,2.75
2019-03-17T05:11:45.402Z,4.53
2019-03-17T05:14:16.092Z,4.43
2019-03-17T05:16:47.689Z,7.70
2019-03-17T05:19:18.327Z,8.60
2019-03-17T05:21:50.252Z,8.07
2019-03-17T05:24:20.804Z,7.43
2019-03-17T05:26:51.415Z,7.03
2019-03-17T05:29:22.089Z,5.33
2019-03-17T05:31:52.659Z,3.80
2019-03-17T05:34:23.370Z,6.27
2019-03-17T05:37:05.271Z,4.37
2019-03-17T05:39:26.578Z,5.10
2019-03-17T05:42:01.537Z,5.87
2019-03-17T05:44:32.282Z,5.67
2019-03-17T05:47:02.969Z,6.00
2019-03-17T05:49:33.609Z,6.10
2019-03-17T05:52:04.240Z,3.97
2019-03-17T05:54:34.848Z,4.87
2019-03-17T05:57:05.447Z,2.70
2019-03-17T05:59:36.024Z,3.40
2019-03-17T06:02:06.618Z,4.23
2019-03-17T06:04:46.274Z,3.27
2019-03-17T06:07:18.855Z,3.97
2019-03-17T06:09:49.227Z,6.87
2019-03-17T06:12:19.936Z,4.77
2019-03-17T06:14:50.686Z,3.67
2019-03-17T06:17:21.342Z,5.27
2019-03-17T06:19:52.022Z,5.73
2019-03-17T06:22:22.981Z,5.10
2019-03-17T06:24:56.552Z,6.40
2019-03-17T06:27:27.213Z,4.00
2019-03-17T06:29:57.811Z,6.80
2019-03-17T06:32:28.416Z,3.70
2019-03-17T06:34:59.059Z,5.63
2019-03-17T06:37:31.309Z,5.33
2019-03-17T06:40:02.209Z,4.00
2019-03-17T06:42:32.987Z,6.63
2019-03-17T06:45:03.718Z,7.23
2019-03-17T06:47:34.274Z,5.57
2019-03-17T06:50:05.546Z,5.10
2019-03-17T06:52:36.265Z,4.37
2019-03-17T06:55:08.267Z,6.63
2019-03-17T06:57:38.997Z,2.63
2019-03-17T07:00:09.846Z,3.93
2019-03-17T07:02:40.372Z,5.33
2019-03-17T07:05:11.027Z,2.57
2019-03-17T07:07:44.222Z,5.27
2019-03-17T07:10:13.985Z,4.40
2019-03-17T07:12:44.559Z,5.47
2019-03-17T07:15:15.282Z,6.00
2019-03-17T07:17:45.814Z,3.63
2019-03-17T07:20:16.414Z,3.47
2019-03-17T07:22:47.122Z,4.43
2019-03-17T07:25:17.753Z,6.83
2019-03-17T07:27:48.427Z,7.43
2019-03-17T07:30:19.349Z,6.30
2019-03-17T07:32:49.959Z,2.60
2019-03-17T07:35:20.760Z,1.87
2019-03-17T07:37:56.704Z,1.97
2019-03-17T07:40:23.692Z,1.13
2019-03-17T07:42:54.206Z,0.50
2019-03-17T07:45:24.920Z,2.00
2019-03-17T07:47:55.494Z,1.27
2019-03-17T07:50:26.097Z,1.50
2019-03-17T07:52:56.660Z,0.47
2019-03-17T07:55:27.316Z,0.20
2019-03-17T07:57:57.910Z,0.77
2019-03-17T08:00:32.200Z,0.50
2019-03-17T08:03:00.995Z,0.30
2019-03-17T08:05:31.665Z,0.50
2019-03-17T08:08:09.413Z,0.67
2019-03-17T08:10:34.505Z,0.93
2019-03-17T08:13:05.083Z,1.03
2019-03-17T08:15:37.055Z,0.97
2019-03-17T08:18:07.625Z,1.40
2019-03-17T08:20:38.188Z,1.10
2019-03-17T08:23:08.783Z,0.60
2019-03-17T08:25:39.342Z,0.57
2019-03-17T08:28:09.898Z,0.60
2019-03-17T08:30:52.398Z,0.60
2019-03-17T08:33:12.871Z,0.67
2019-03-17T08:35:43.426Z,0.70
2019-03-17T08:38:21.870Z,0.50
2019-03-17T08:40:46.356Z,0.80
2019-03-17T08:43:16.951Z,0.70
2019-03-17T08:45:47.538Z,3.50
2019-03-17T08:48:18.209Z,0.83
2019-03-17T08:50:48.743Z,0.90
2019-03-17T08:53:19.317Z,0.60
2019-03-17T08:55:49.923Z,2.20
2019-03-17T08:58:20.564Z,0.97
2019-03-17T09:00:51.206Z,1.13
2019-03-17T09:03:21.741Z,0.80
2019-03-17T09:05:52.287Z,3.83
2019-03-17T09:08:34.481Z,0.90
2019-03-17T09:10:57.867Z,1.13
2019-03-17T09:13:28.554Z,2.50
2019-03-17T09:15:59.107Z,1.60
2019-03-17T09:18:29.872Z,3.53
2019-03-17T09:21:00.442Z,1.40
2019-03-17T09:23:30.998Z,2.20
2019-03-17T09:26:01.702Z,1.60
2019-03-17T09:28:32.240Z,3.27
2019-03-17T09:31:06.111Z,2.27
2019-03-17T09:33:35.282Z,2.90
2019-03-17T09:36:05.822Z,1.30
2019-03-17T09:38:46.863Z,1.67
2019-03-17T09:41:08.696Z,1.30
2019-03-17T09:43:39.228Z,1.27
2019-03-17T09:46:09.836Z,3.10
2019-03-17T09:48:40.381Z,2.67
2019-03-17T09:51:10.970Z,1.70
2019-03-17T09:53:41.550Z,2.23
2019-03-17T09:56:12.113Z,1.77
2019-03-17T09:58:45.544Z,1.20
2019-03-17T10:01:15.087Z,1.20
2019-03-17T10:03:45.648Z,2.47
2019-03-17T10:06:16.216Z,1.97
2019-03-17T10:08:59.031Z,2.67
2019-03-17T10:11:19.015Z,1.63
2019-03-17T10:13:49.552Z,2.97
2019-03-17T10:16:20.242Z,2.13
2019-03-17T10:18:50.839Z,3.23
2019-03-17T10:21:21.433Z,1.60
2019-03-17T10:23:52.038Z,3.93
2019-03-17T10:26:22.601Z,2.47
2019-03-17T10:28:53.146Z,2.70
2019-03-17T10:31:23.701Z,1.50
2019-03-17T10:33:54.239Z,0.83
2019-03-17T10:36:24.796Z,1.43
2019-03-17T10:38:55.360Z,1.43
2019-03-17T10:41:26.052Z,0.60
2019-03-17T10:43:56.636Z,0.30
2019-03-17T10:46:27.216Z,0.60
2019-03-17T10:48:57.797Z,2.30
2019-03-17T10:51:28.377Z,0.80
2019-03-17T10:53:59.065Z,0.70
2019-03-17T10:56:29.823Z,0.50
2019-03-17T10:59:00.370Z,0.60
2019-03-17T11:01:31.022Z,3.60
2019-03-17T11:04:20.671Z,0.93
2019-03-17T11:06:51.198Z,0.50
2019-03-17T11:09:25.500Z,0.63
2019-03-17T11:11:56.896Z,1.30
2019-03-17T11:14:27.548Z,0.87
2019-03-17T11:16:58.128Z,0.60
2019-03-17T11:19:28.800Z,1.20
2019-03-17T11:21:59.370Z,0.80
2019-03-17T11:24:30.203Z,2.05
2019-03-17T11:27:00.928Z,2.17
2019-03-17T11:29:31.661Z,2.17
2019-03-17T11:32:02.218Z,1.87
2019-03-17T11:34:32.931Z,0.80
2019-03-17T11:37:03.627Z,2.13
2019-03-17T11:39:37.949Z,1.37
2019-03-17T11:42:06.489Z,1.10
2019-03-17T11:44:37.084Z,1.57
2019-03-17T11:47:07.696Z,3.40
2019-03-17T11:49:38.278Z,3.00
2019-03-17T11:52:08.863Z,1.80
2019-03-17T11:54:39.439Z,2.53
2019-03-17T11:57:10.263Z,2.47
2019-03-17T11:59:46.117Z,0.97
2019-03-17T12:02:26.030Z,3.47
2019-03-17T12:04:48.964Z,2.03
2019-03-17T12:07:19.499Z,1.87
2019-03-17T12:09:50.657Z,1.10
2019-03-17T12:12:22.625Z,1.23
2019-03-17T12:14:53.205Z,0.50
2019-03-17T12:17:23.774Z,1.43
2019-03-17T12:19:54.343Z,0.33
2019-03-17T12:22:28.237Z,0.50
2019-03-17T12:24:58.758Z,0.30
2019-03-17T12:27:29.352Z,0.50
2019-03-17T12:29:59.998Z,0.80
2019-03-17T12:32:30.679Z,0.60
2019-03-17T12:35:01.281Z,1.33
2019-03-17T12:37:31.976Z,3.50
2019-03-17T12:40:03.390Z,1.30
2019-03-17T12:42:34.203Z,1.50
2019-03-17T12:45:04.876Z,1.10
2019-03-17T12:47:37.333Z,0.70
2019-03-17T12:50:07.910Z,0.87
2019-03-17T12:52:38.516Z,1.07
2019-03-17T12:55:09.111Z,1.20
2019-03-17T12:57:39.725Z,0.90
2019-03-17T13:00:13.807Z,1.00
2019-03-17T13:02:44.393Z,2.10
2019-03-17T13:05:15.291Z,3.63
2019-03-17T13:07:46.154Z,0.87
2019-03-17T13:10:17.087Z,0.67
2019-03-17T13:12:47.653Z,0.83
2019-03-17T13:15:18.271Z,0.70
2019-03-17T13:17:48.818Z,0.77
2019-03-17T13:20:19.610Z,0.60
2019-03-17T13:22:50.245Z,0.63
2019-03-17T13:25:20.879Z,2.43
2019-03-17T13:27:51.451Z,1.43
2019-03-17T13:30:22.070Z,0.30
2019-03-17T13:32:52.774Z,0.43
2019-03-17T13:35:23.333Z,0.80
2019-03-17T13:37:53.917Z,1.27
2019-03-17T13:40:29.547Z,0.83
2019-03-17T13:42:56.806Z,2.53
2019-03-17T13:45:27.356Z,0.80
2019-03-17T13:47:57.891Z,0.87
2019-03-17T13:50:28.514Z,0.90
2019-03-17T13:52:59.069Z,0.80
2019-03-17T13:55:29.845Z,0.65
2019-03-17T13:58:00.672Z,1.10
2019-03-17T14:00:31.288Z,1.43
2019-03-17T14:03:02.880Z,2.10
2019-03-17T14:05:33.555Z,0.80
2019-03-17T14:08:04.126Z,1.23
2019-03-17T14:10:40.795Z,1.13
2019-03-17T14:13:06.967Z,1.37
2019-03-17T14:15:37.516Z,1.70
2019-03-17T14:18:08.201Z,1.10
2019-03-17T14:20:38.795Z,2.27
2019-03-17T14:23:09.393Z,0.90
2019-03-17T14:25:39.979Z,1.33
2019-03-17T14:28:10.518Z,1.13
2019-03-17T14:30:41.103Z,2.20
2019-03-17T14:33:11.633Z,1.73
2019-03-17T14:35:42.198Z,1.57
2019-03-17T14:38:12.764Z,1.27
2019-03-17T14:40:52.936Z,3.03
2019-03-17T14:43:15.698Z,1.47
2019-03-17T14:45:46.281Z,1.43
2019-03-17T14:48:16.796Z,1.47
2019-03-17T14:50:47.453Z,0.93
2019-03-17T14:53:18.013Z,0.80
2019-03-17T14:55:48.548Z,2.03
2019-03-17T14:58:19.051Z,1.57
2019-03-17T15:00:49.596Z,1.00
2019-03-17T15:03:20.162Z,1.27
2019-03-17T15:05:50.696Z,1.10
2019-03-17T15:08:21.322Z,1.10
2019-03-17T15:10:52.053Z,2.27
2019-03-17T15:13:22.670Z,2.27
2019-03-17T15:16:02.403Z,1.63
2019-03-17T15:18:26.011Z,1.83
2019-03-17T15:20:56.713Z,1.90
2019-03-17T15:23:27.297Z,5.63
2019-03-17T15:25:57.832Z,4.23
2019-03-17T15:28:28.475Z,0.83
2019-03-17T15:31:10.970Z,1.90
2019-03-17T15:33:31.514Z,1.83
2019-03-17T15:36:02.105Z,2.40
2019-03-17T15:38:32.740Z,2.00
2019-03-17T15:41:03.399Z,1.40
2019-03-17T15:43:33.996Z,1.63
2019-03-17T15:46:06.797Z,1.20
2019-03-17T15:48:37.404Z,1.70
2019-03-17T15:51:19.408Z,1.03
2019-03-17T15:53:40.302Z,1.40
2019-03-17T15:56:10.933Z,1.00
2019-03-17T15:58:41.905Z,2.87
2019-03-17T16:01:12.431Z,2.33
2019-03-17T16:03:42.992Z,1.67
2019-03-17T16:06:13.585Z,1.80
2019-03-17T16:08:44.089Z,1.10
2019-03-17T16:11:14.707Z,1.90
2019-03-17T16:13:45.277Z,1.97
2019-03-17T16:16:15.990Z,2.27
2019-03-17T16:18:46.575Z,5.30
2019-03-17T16:21:17.109Z,1.77
2019-03-17T16:23:47.632Z,1.37
2019-03-17T16:26:18.238Z,3.05
2019-03-17T16:28:48.831Z,1.20
2019-03-17T16:31:19.451Z,1.10
2019-03-17T16:33:50.037Z,3.10
2019-03-17T16:36:20.594Z,1.10
2019-03-17T16:38:51.177Z,3.03
2019-03-17T16:41:21.752Z,1.73
2019-03-17T16:43:52.357Z,3.40
2019-03-17T16:46:23.982Z,2.60
2019-03-17T16:48:54.608Z,2.00
2019-03-17T16:51:28.918Z,2.67
2019-03-17T16:54:00.576Z,4.83
2019-03-17T16:56:31.127Z,1.40
2019-03-17T16:59:01.763Z,5.53
2019-03-17T17:01:32.927Z,3.77
2019-03-17T17:04:03.959Z,1.50
2019-03-17T17:06:34.567Z,1.10
2019-03-17T17:09:06.947Z,2.57
2019-03-17T17:11:37.478Z,4.00
2019-03-17T17:14:08.224Z,1.80
2019-03-17T17:16:38.741Z,4.23
2019-03-17T17:19:09.396Z,4.07
2019-03-17T17:21:39.945Z,2.20
2019-03-17T17:24:10.486Z,1.73
2019-03-17T17:26:41.054Z,4.37
2019-03-17T17:29:11.629Z,8.33
2019-03-17T17:31:42.197Z,3.23
2019-03-17T17:34:13.310Z,3.20
2019-03-17T17:36:43.817Z,1.70
2019-03-17T17:39:15.468Z,2.63
2019-03-17T17:41:46.987Z,2.97
2019-03-17T17:44:17.554Z,2.40
2019-03-17T17:46:48.177Z,6.37
2019-03-17T17:49:18.745Z,1.40
2019-03-17T17:51:49.342Z,2.10
2019-03-17T17:54:19.923Z,4.72
2019-03-17T17:56:51.960Z,2.83
2019-03-17T17:59:22.680Z,1.30
2019-03-17T18:01:53.239Z,3.53
2019-03-17T18:04:23.911Z,6.70
2019-03-17T18:06:55.554Z,2.33
2019-03-17T18:09:26.302Z,1.40
2019-03-17T18:11:56.905Z,3.57
2019-03-17T18:14:27.609Z,2.50
2019-03-17T18:16:58.351Z,1.30
2019-03-17T18:19:29.091Z,2.33
2019-03-17T18:21:59.848Z,2.47
2019-03-17T18:24:30.624Z,4.20
2019-03-17T18:27:01.127Z,1.20
2019-03-17T18:29:31.736Z,2.07
2019-03-17T18:32:03.870Z,4.90
2019-03-17T18:34:34.467Z,5.00
2019-03-17T18:37:08.570Z,2.93
2019-03-17T18:39:39.103Z,1.93
2019-03-17T18:42:09.704Z,2.40
2019-03-17T18:44:40.304Z,3.47
2019-03-17T18:47:10.978Z,1.67
2019-03-17T18:49:41.566Z,1.53
2019-03-17T18:52:12.117Z,4.80
2019-03-17T18:54:42.692Z,4.33
2019-03-17T18:57:13.279Z,9.67
2019-03-17T18:59:43.961Z,2.60
2019-03-17T19:02:14.506Z,2.63
2019-03-17T19:04:45.167Z,1.03
2019-03-17T19:07:15.846Z,1.33
2019-03-17T19:09:46.487Z,2.10
2019-03-17T19:12:17.049Z,2.00
2019-03-17T19:14:47.631Z,2.20
2019-03-17T19:17:18.254Z,2.43
2019-03-17T19:19:48.935Z,2.70
2019-03-17T19:22:19.500Z,3.60
2019-03-17T19:24:50.158Z,1.10
2019-03-17T19:27:20.756Z,4.17
2019-03-17T19:29:51.469Z,6.10
2019-03-17T19:32:22.117Z,2.73
2019-03-17T19:34:52.680Z,2.00
2019-03-17T19:37:23.255Z,0.80
2019-03-17T19:39:53.853Z,1.07
2019-03-17T19:42:25.678Z,0.83
2019-03-17T19:44:56.275Z,3.37
2019-03-17T19:47:27.032Z,1.43
2019-03-17T19:49:57.820Z,1.13
2019-03-17T19:52:28.464Z,2.40
2019-03-17T19:55:00.587Z,2.50
2019-03-17T19:57:31.124Z,2.03
2019-03-17T20:00:01.894Z,2.07
2019-03-17T20:02:32.531Z,1.10
2019-03-17T20:05:03.101Z,1.00
2019-03-17T20:07:33.914Z,2.23
2019-03-17T20:10:04.928Z,1.03
2019-03-17T20:12:35.501Z,2.50
2019-03-17T20:15:06.353Z,2.90
2019-03-17T20:17:36.964Z,5.00
2019-03-17T20:20:08.946Z,1.83
2019-03-17T20:22:39.489Z,5.00
2019-03-17T20:25:10.928Z,1.93
2019-03-17T20:27:41.457Z,1.47
2019-03-17T20:30:13.185Z,1.40
2019-03-17T20:32:43.756Z,1.80
2019-03-17T20:35:14.630Z,3.57
2019-03-17T20:37:45.173Z,2.93
2019-03-17T20:40:15.793Z,2.27
2019-03-17T20:42:46.339Z,1.83
2019-03-17T20:45:20.196Z,2.20
2019-03-17T20:47:56.901Z,2.57
2019-03-17T20:50:28.094Z,1.47
2019-03-17T20:52:58.688Z,2.50
2019-03-17T20:55:29.313Z,1.27
2019-03-17T20:57:59.935Z,2.27
2019-03-17T21:00:30.488Z,1.30
2019-03-17T21:03:01.076Z,1.87
2019-03-17T21:05:31.786Z,1.53
2019-03-17T21:08:03.445Z,1.20
2019-03-17T21:10:34.050Z,2.30
2019-03-17T21:13:04.599Z,1.60
2019-03-17T21:15:35.165Z,3.23
2019-03-17T21:18:05.736Z,1.77
2019-03-17T21:20:36.345Z,1.33
2019-03-17T21:23:06.895Z,2.87
2019-03-17T21:25:37.422Z,4.60
2019-03-17T21:28:07.961Z,4.33
2019-03-17T21:30:38.521Z,1.97
2019-03-17T21:33:09.104Z,2.20
2019-03-17T21:35:39.649Z,2.60
2019-03-17T21:38:10.235Z,1.60
2019-03-17T21:40:56.383Z,1.30
2019-03-17T21:43:13.043Z,1.80
2019-03-17T21:45:43.706Z,4.13
2019-03-17T21:48:14.285Z,3.43
2019-03-17T21:50:44.806Z,2.70
2019-03-17T21:53:15.321Z,3.17
2019-03-17T21:55:45.890Z,2.97
2019-03-17T21:58:16.436Z,3.03
2019-03-17T22:00:46.986Z,3.30
2019-03-17T22:03:21.051Z,5.23
2019-03-17T22:05:51.594Z,3.30
2019-03-17T22:08:22.170Z,4.37
2019-03-17T22:10:52.736Z,4.67
2019-03-17T22:13:23.320Z,3.07
2019-03-17T22:15:53.854Z,3.53
2019-03-17T22:18:24.415Z,1.80
2019-03-17T22:20:54.931Z,2.93
2019-03-17T22:23:25.478Z,2.57
2019-03-17T22:25:56.015Z,2.90
2019-03-17T22:28:26.532Z,3.47
2019-03-17T22:30:57.145Z,1.70
2019-03-17T22:33:27.710Z,2.70
2019-03-17T22:35:58.227Z,1.83
2019-03-17T22:38:28.829Z,2.47
2019-03-17T22:40:59.348Z,2.10
2019-03-17T22:43:29.905Z,1.93
2019-03-17T22:46:00.482Z,2.37
2019-03-17T22:48:31.022Z,2.60
2019-03-17T22:51:01.713Z,2.50
2019-03-17T22:53:32.283Z,2.00
2019-03-17T22:56:02.907Z,3.17
2019-03-17T22:58:33.423Z,3.07
2019-03-17T23:01:04.079Z,2.80
2019-03-17T23:03:34.644Z,5.47
2019-03-17T23:06:05.185Z,4.80
2019-03-17T23:08:35.745Z,2.77
2019-03-17T23:11:06.259Z,2.93
2019-03-17T23:13:36.829Z,3.03
2019-03-17T23:16:07.374Z,5.47
2019-03-17T23:18:37.942Z,2.60
2019-03-17T23:21:08.496Z,3.83
2019-03-17T23:23:39.563Z,6.33
2019-03-17T23:26:10.262Z,5.93
2019-03-17T23:28:40.802Z,4.10
2019-03-17T23:31:11.369Z,4.13
2019-03-17T23:33:41.989Z,4.07
2019-03-17T23:36:12.569Z,4.13
2019-03-17T23:38:43.128Z,2.33
2019-03-17T23:41:13.727Z,5.90
2019-03-17T23:43:44.252Z,3.70
2019-03-17T23:46:14.824Z,4.57
2019-03-17T23:48:45.343Z,4.03
2019-03-17T23:51:15.910Z,2.50
2019-03-17T23:53:46.528Z,3.57
2019-03-17T23:56:17.125Z,3.73
2019-03-17T23:58:47.701Z,4.00
